createdAt,value
2023-03-13T00:01:47.375Z,91964.84
2023-03-13T00:04:50.483Z,91954.25
2023-03-13T00:07:53.873Z,91957.91
2023-03-13T00:10:57.181Z,91975.34
2023-03-13T00:14:01.850Z,91975.53
2023-03-13T00:17:04.901Z,91968.69
2023-03-13T00:20:09.777Z,91984.81
2023-03-13T00:23:12.767Z,91983.03
2023-03-13T00:26:17.579Z,91977.97
2023-03-13T00:29:20.679Z,91979.50
2023-03-13T00:32:23.732Z,91988.81
2023-03-13T00:35:27.268Z,91986.00
2023-03-13T00:38:30.985Z,91977.38
2023-03-13T00:41:34.460Z,91982.91
2023-03-13T00:44:37.558Z,91990.22
2023-03-13T00:47:40.545Z,91984.78
2023-03-13T00:50:45.070Z,91975.38
2023-03-13T00:53:48.674Z,91980.06
2023-03-13T00:56:51.790Z,91980.38
2023-03-13T00:59:54.834Z,91984.38
2023-03-13T01:02:58.238Z,91971.69
2023-03-13T01:06:03.731Z,91960.41
2023-03-13T01:09:07.635Z,91972.03
2023-03-13T01:12:10.868Z,91986.28
2023-03-13T01:15:14.108Z,91986.44
2023-03-13T01:18:17.486Z,91990.06
2023-03-13T01:21:21.018Z,91987.34
2023-03-13T01:24:25.330Z,91989.69
2023-03-13T01:27:28.543Z,91980.97
2023-03-13T01:30:31.770Z,91983.72
2023-03-13T01:33:34.820Z,91984.28
2023-03-13T01:36:38.502Z,91988.16
2023-03-13T01:39:41.600Z,91977.13
2023-03-13T01:42:51.698Z,91978.19
2023-03-13T01:45:57.389Z,91986.69
2023-03-13T01:49:06.615Z,91984.03
2023-03-13T01:52:27.552Z,91961.91
2023-03-13T01:55:38.132Z,91958.75
2023-03-13T01:58:41.361Z,91955.50
2023-03-13T02:01:45.186Z,91952.25
2023-03-13T02:04:50.014Z,91948.91
2023-03-13T02:07:57.277Z,91957.31
2023-03-13T02:11:05.570Z,91956.59
2023-03-13T02:14:08.713Z,91954.91
2023-03-13T02:17:11.890Z,91950.72
2023-03-13T02:20:15.575Z,91953.25
2023-03-13T02:23:30.374Z,91952.56
2023-03-13T02:26:33.365Z,91954.00
2023-03-13T02:29:36.954Z,91957.16
2023-03-13T02:32:40.411Z,91945.38
2023-03-13T02:35:44.309Z,91945.25
2023-03-13T02:38:56.366Z,91955.50
2023-03-13T02:42:01.089Z,91951.69
2023-03-13T02:45:04.336Z,91937.22
2023-03-13T02:48:07.345Z,91932.84
2023-03-13T02:51:17.976Z,91935.25
2023-03-13T02:54:25.845Z,91929.53
2023-03-13T02:57:28.936Z,91928.06
2023-03-13T03:00:32.048Z,91913.09
2023-03-13T03:03:38.141Z,91919.25
2023-03-13T03:06:41.243Z,91914.25
2023-03-13T03:09:44.501Z,91909.75
2023-03-13T03:12:53.444Z,91892.00
2023-03-13T03:15:56.639Z,91891.31
2023-03-13T03:18:59.823Z,91887.66
2023-03-13T03:22:02.962Z,91887.13
2023-03-13T03:25:09.819Z,91895.66
2023-03-13T03:28:12.772Z,91892.63
2023-03-13T03:31:18.655Z,91888.56
2023-03-13T03:34:22.463Z,91897.84
2023-03-13T03:37:26.092Z,91894.41
2023-03-13T03:40:29.321Z,91910.22
2023-03-13T03:43:32.737Z,91902.22
2023-03-13T03:46:36.462Z,91912.53
2023-03-13T03:49:39.695Z,91905.47
2023-03-13T03:52:44.838Z,91914.38
2023-03-13T03:55:48.047Z,91903.88
2023-03-13T03:58:51.555Z,91905.28
2023-03-13T04:02:00.967Z,91906.44
2023-03-13T04:05:06.077Z,91905.53
2023-03-13T04:08:11.315Z,91912.22
2023-03-13T04:11:14.374Z,91908.53
2023-03-13T04:14:22.969Z,91914.13
2023-03-13T04:17:26.832Z,91911.56
2023-03-13T04:20:30.005Z,91911.06
2023-03-13T04:23:33.217Z,91928.78
2023-03-13T04:26:36.365Z,91912.47
2023-03-13T04:29:40.023Z,91899.94
2023-03-13T04:32:59.129Z,91910.97
2023-03-13T04:36:27.202Z,91897.56
2023-03-13T04:39:48.365Z,91898.25
2023-03-13T04:43:12.816Z,91900.41
2023-03-13T04:46:15.917Z,91898.47
2023-03-13T04:49:37.395Z,91896.81
2023-03-13T04:52:58.667Z,91889.53
2023-03-13T04:56:41.160Z,91888.53
2023-03-13T05:00:06.179Z,91890.91
2023-03-13T05:03:17.246Z,91894.75
2023-03-13T05:06:43.004Z,91889.06
2023-03-13T05:10:08.724Z,91882.97
2023-03-13T05:13:11.789Z,91874.94
2023-03-13T05:16:34.912Z,91879.91
2023-03-13T05:19:56.218Z,91868.19
2023-03-13T05:23:16.172Z,91872.47
2023-03-13T05:26:35.760Z,91866.31
2023-03-13T05:29:55.660Z,91866.13
2023-03-13T05:33:12.288Z,91869.25
2023-03-13T05:36:33.665Z,91856.16
2023-03-13T05:39:39.652Z,91865.63
2023-03-13T05:43:00.578Z,91855.72
2023-03-13T05:46:23.886Z,91857.47
2023-03-13T05:49:39.166Z,91857.34
2023-03-13T05:53:11.229Z,91861.53
2023-03-13T05:56:36.984Z,91868.06
2023-03-13T06:00:06.581Z,91859.38
2023-03-13T06:03:38.743Z,91864.16
2023-03-13T06:06:42.433Z,91855.06
2023-03-13T06:09:45.785Z,91860.13
2023-03-13T06:12:53.573Z,91853.59
2023-03-13T06:15:58.571Z,91856.34
2023-03-13T06:19:17.899Z,91849.19
2023-03-13T06:22:20.953Z,91857.59
2023-03-13T06:25:24.623Z,91859.41
2023-03-13T06:28:27.609Z,91858.38
2023-03-13T06:31:30.622Z,91858.44
2023-03-13T06:34:33.672Z,91852.47
2023-03-13T06:37:36.867Z,91859.19
2023-03-13T06:40:40.215Z,91872.34
2023-03-13T06:43:43.291Z,91870.56
2023-03-13T06:46:46.348Z,91869.31
2023-03-13T06:49:49.421Z,91884.28
2023-03-13T06:52:52.580Z,91872.31
2023-03-13T06:55:55.633Z,91877.03
2023-03-13T06:58:59.956Z,91871.41
2023-03-13T07:02:03.186Z,91870.19
2023-03-13T07:05:06.605Z,91874.75
2023-03-13T07:08:09.793Z,91880.59
2023-03-13T07:11:13.778Z,91877.31
2023-03-13T07:14:17.763Z,91879.16
2023-03-13T07:17:20.927Z,91882.94
2023-03-13T07:20:24.061Z,91880.28
2023-03-13T07:23:27.844Z,91881.47
2023-03-13T07:26:30.856Z,91870.38
2023-03-13T07:29:34.174Z,91872.94
2023-03-13T07:32:37.330Z,91872.28
2023-03-13T07:35:41.242Z,91880.00
2023-03-13T07:38:44.605Z,91884.47
2023-03-13T07:41:47.630Z,91892.22
2023-03-13T07:44:54.026Z,91894.81
2023-03-13T07:47:57.042Z,91896.16
2023-03-13T07:51:00.114Z,91898.75
2023-03-13T07:54:03.196Z,91906.50
2023-03-13T07:57:06.838Z,91897.06
2023-03-13T08:00:15.713Z,91902.25
2023-03-13T08:03:19.053Z,91915.09
2023-03-13T08:06:24.289Z,91914.63
2023-03-13T08:09:27.290Z,91922.44
2023-03-13T08:12:30.278Z,91914.34
2023-03-13T08:15:33.215Z,91911.59
2023-03-13T08:18:37.050Z,91915.25
2023-03-13T08:21:40.025Z,91915.00
2023-03-13T08:24:43.003Z,91909.72
2023-03-13T08:27:46.048Z,91913.50
2023-03-13T08:30:49.140Z,91918.94
2023-03-13T08:33:52.570Z,91921.06
2023-03-13T08:36:55.592Z,91912.97
2023-03-13T08:39:58.654Z,91916.72
2023-03-13T08:43:01.630Z,91919.72
2023-03-13T08:46:04.820Z,91913.78
2023-03-13T08:49:08.698Z,91912.19
2023-03-13T08:52:11.668Z,91914.03
2023-03-13T08:55:14.687Z,91913.66
2023-03-13T08:58:17.855Z,91917.13
2023-03-13T09:01:21.481Z,91907.69
2023-03-13T09:04:24.656Z,91906.63
2023-03-13T09:07:27.792Z,91902.84
2023-03-13T09:10:30.799Z,91897.78
2023-03-13T09:13:34.848Z,91900.50
2023-03-13T09:16:37.974Z,91888.72
2023-03-13T09:19:50.671Z,91887.44
2023-03-13T09:23:00.816Z,91888.38
2023-03-13T09:26:04.120Z,91875.69
2023-03-13T09:29:07.160Z,91870.66
2023-03-13T09:32:12.031Z,91875.25
2023-03-13T09:35:15.077Z,91869.81
2023-03-13T09:38:18.955Z,91875.44
2023-03-13T09:41:24.517Z,91864.78
2023-03-13T09:44:30.477Z,91867.75
2023-03-13T09:47:44.066Z,91870.91
2023-03-13T09:50:51.901Z,91874.13
2023-03-13T09:53:58.264Z,91870.84
2023-03-13T09:57:06.588Z,91883.03
2023-03-13T10:00:14.829Z,91883.16
2023-03-13T10:03:29.828Z,91877.50
2023-03-13T10:06:35.733Z,91886.50
2023-03-13T10:09:38.981Z,91893.41
2023-03-13T10:12:53.860Z,91896.56
2023-03-13T10:16:55.610Z,91903.56
2023-03-13T10:20:15.582Z,91913.09
2023-03-13T10:23:45.859Z,91925.94
2023-03-13T10:26:49.187Z,91929.53
2023-03-13T10:29:52.748Z,91926.00
2023-03-13T10:33:17.248Z,91927.03
2023-03-13T10:36:21.172Z,91929.44
2023-03-13T10:39:27.086Z,91939.72
2023-03-13T10:42:36.589Z,91928.22
2023-03-13T10:45:40.040Z,91936.78
2023-03-13T10:48:43.436Z,91951.06
2023-03-13T10:51:58.057Z,91954.38
2023-03-13T10:55:07.222Z,91954.44
2023-03-13T10:58:20.213Z,91952.53
2023-03-13T11:01:33.255Z,91956.94
2023-03-13T11:04:40.576Z,91964.94
2023-03-13T11:07:46.161Z,91959.69
2023-03-13T11:10:55.540Z,91960.53
2023-03-13T11:14:10.618Z,91956.72
2023-03-13T11:17:13.624Z,91967.56
2023-03-13T11:20:33.183Z,91962.97
2023-03-13T11:23:44.760Z,91965.44
2023-03-13T11:27:19.515Z,91969.91
2023-03-13T11:30:44.735Z,91967.09
2023-03-13T11:34:05.918Z,91974.66
2023-03-13T11:37:20.205Z,91971.50
2023-03-13T11:40:38.867Z,91970.72
2023-03-13T11:44:09.423Z,91972.38
2023-03-13T11:47:21.803Z,91972.72
2023-03-13T11:50:25.225Z,91977.63
2023-03-13T11:53:46.617Z,91972.94
2023-03-13T11:57:06.302Z,91972.44
2023-03-13T12:00:42.942Z,91982.72
2023-03-13T12:04:27.801Z,91981.88
2023-03-13T12:07:46.969Z,91989.66
2023-03-13T12:11:06.377Z,91989.09
2023-03-13T12:14:24.023Z,91989.75
2023-03-13T12:17:34.314Z,91996.34
2023-03-13T12:20:43.519Z,91991.28
2023-03-13T12:24:14.409Z,92006.50
2023-03-13T12:27:40.386Z,92004.41
2023-03-13T12:30:51.304Z,91999.25
2023-03-13T12:34:16.748Z,92005.34
2023-03-13T12:37:27.537Z,92013.41
2023-03-13T12:40:39.941Z,92009.91
2023-03-13T12:43:54.444Z,92012.00
2023-03-13T12:47:27.952Z,92006.81
2023-03-13T12:51:00.222Z,92008.59
2023-03-13T12:54:22.274Z,92009.38
2023-03-13T12:57:53.085Z,92009.97
2023-03-13T13:01:03.262Z,92007.34
2023-03-13T13:04:12.450Z,92012.94
2023-03-13T13:07:31.726Z,92012.84
2023-03-13T13:10:35.986Z,92009.25
2023-03-13T13:13:41.036Z,92011.88
2023-03-13T13:16:49.037Z,92007.31
2023-03-13T13:19:52.883Z,92008.66
2023-03-13T13:22:56.282Z,92020.59
2023-03-13T13:26:30.417Z,92014.19
2023-03-13T13:29:33.786Z,92006.97
2023-03-13T13:32:54.799Z,92007.19
2023-03-13T13:36:10.405Z,92005.38
2023-03-13T13:39:37.397Z,92003.56
2023-03-13T13:42:55.872Z,92001.59
2023-03-13T13:46:08.061Z,92003.56
2023-03-13T13:49:25.250Z,92003.63
2023-03-13T13:52:38.161Z,92004.53
2023-03-13T13:55:41.410Z,92002.66
2023-03-13T13:58:46.612Z,92000.06
2023-03-13T14:01:52.724Z,92004.53
2023-03-13T14:05:06.326Z,92001.97
2023-03-13T14:08:40.074Z,92005.22
2023-03-13T14:11:43.500Z,91999.34
2023-03-13T14:14:49.256Z,92008.28
2023-03-13T14:17:55.548Z,92001.88
2023-03-13T14:21:16.240Z,92006.41
2023-03-13T14:24:19.781Z,92013.44
2023-03-13T14:27:23.476Z,92010.88
2023-03-13T14:30:27.974Z,92018.69
2023-03-13T14:33:31.814Z,92005.22
2023-03-13T14:36:59.173Z,92008.44
2023-03-13T14:40:16.777Z,92011.03
2023-03-13T14:43:31.522Z,92014.16
2023-03-13T14:46:37.126Z,92013.50
2023-03-13T14:49:40.598Z,92025.59
2023-03-13T14:52:56.792Z,92016.66
2023-03-13T14:56:19.954Z,92024.53
2023-03-13T14:59:29.976Z,92025.16
2023-03-13T15:02:33.864Z,92020.97
2023-03-13T15:05:37.136Z,92017.50
2023-03-13T15:08:43.086Z,92030.34
2023-03-13T15:11:59.863Z,92023.94
2023-03-13T15:15:03.224Z,92023.94
2023-03-13T15:18:18.677Z,92019.44
2023-03-13T15:21:28.782Z,92023.84
2023-03-13T15:24:32.618Z,92021.94
2023-03-13T15:27:36.537Z,92020.19
2023-03-13T15:30:40.564Z,92019.47
2023-03-13T15:33:45.462Z,92020.25
2023-03-13T15:36:49.088Z,92022.81
2023-03-13T15:39:52.480Z,92028.47
2023-03-13T15:42:56.576Z,92030.34
2023-03-13T15:46:00.220Z,92038.66
2023-03-13T15:49:04.397Z,92039.09
2023-03-13T15:52:23.261Z,92037.78
2023-03-13T15:55:28.534Z,92042.22
2023-03-13T15:58:31.997Z,92033.09
2023-03-13T16:01:35.414Z,92030.41
2023-03-13T16:04:40.662Z,92034.25
2023-03-13T16:07:44.604Z,92040.63
2023-03-13T16:10:48.584Z,92047.75
2023-03-13T16:13:52.134Z,92041.13
2023-03-13T16:16:55.451Z,92045.00
2023-03-13T16:19:58.880Z,92048.22
2023-03-13T16:23:05.962Z,92034.72
2023-03-13T16:26:19.646Z,92039.19
2023-03-13T16:29:22.971Z,92044.91
2023-03-13T16:32:26.535Z,92037.22
2023-03-13T16:35:30.541Z,92035.97
2023-03-13T16:38:34.084Z,92037.97
2023-03-13T16:41:38.985Z,92042.47
2023-03-13T16:44:42.034Z,92038.06
2023-03-13T16:47:46.746Z,92038.56
2023-03-13T16:50:50.058Z,92037.97
2023-03-13T16:53:55.466Z,92037.22
2023-03-13T16:57:01.068Z,92030.84
2023-03-13T17:00:12.455Z,92026.94
2023-03-13T17:03:15.744Z,92024.97
2023-03-13T17:06:21.922Z,92029.59
2023-03-13T17:09:25.289Z,92025.72
2023-03-13T17:12:28.611Z,92028.47
2023-03-13T17:15:31.920Z,92034.91
2023-03-13T17:18:35.651Z,92032.38
2023-03-13T17:21:39.150Z,92036.19
2023-03-13T17:24:43.380Z,92034.34
2023-03-13T17:27:49.888Z,92033.09
2023-03-13T17:30:53.318Z,92038.94
2023-03-13T17:33:56.751Z,92031.22
2023-03-13T17:37:05.579Z,92036.38
2023-03-13T17:40:29.344Z,92033.84
2023-03-13T17:43:32.673Z,92033.19
2023-03-13T17:46:41.439Z,92036.38
2023-03-13T17:49:45.746Z,92040.06
2023-03-13T17:52:49.381Z,92043.25
2023-03-13T17:55:52.897Z,92045.19
2023-03-13T17:59:00.757Z,92041.28
2023-03-13T18:02:04.183Z,92050.81
2023-03-13T18:05:08.228Z,92049.47
2023-03-13T18:08:12.673Z,92052.72
2023-03-13T18:11:17.915Z,92051.28
2023-03-13T18:14:22.247Z,92050.00
2023-03-13T18:17:26.597Z,92046.72
2023-03-13T18:20:33.332Z,92050.00
2023-03-13T18:23:36.751Z,92050.59
2023-03-13T18:26:42.698Z,92044.19
2023-03-13T18:29:48.177Z,92050.47
2023-03-13T18:32:51.823Z,92051.13
2023-03-13T18:35:55.185Z,92054.19
2023-03-13T18:38:59.320Z,92059.31
2023-03-13T18:42:03.657Z,92059.47
2023-03-13T18:45:07.833Z,92058.19
2023-03-13T18:48:12.292Z,92058.31
2023-03-13T18:51:17.952Z,92060.22
2023-03-13T18:54:21.784Z,92059.47
2023-03-13T18:57:25.053Z,92060.06
2023-03-13T19:00:31.486Z,92058.63
2023-03-13T19:03:34.815Z,92062.38
2023-03-13T19:06:38.325Z,92066.19
2023-03-13T19:09:44.153Z,92068.69
2023-03-13T19:12:49.162Z,92060.94
2023-03-13T19:15:52.741Z,92063.78
2023-03-13T19:18:56.609Z,92067.56
2023-03-13T19:21:59.968Z,92061.78
2023-03-13T19:25:03.287Z,92055.13
2023-03-13T19:28:10.028Z,92057.59
2023-03-13T19:31:13.673Z,92057.59
2023-03-13T19:34:20.471Z,92060.25
2023-03-13T19:37:23.847Z,92062.78
2023-03-13T19:40:30.938Z,92062.06
2023-03-13T19:43:34.262Z,92057.47
2023-03-13T19:46:43.841Z,92061.22
2023-03-13T19:49:50.544Z,92061.88
2023-03-13T19:52:53.893Z,92059.25
2023-03-13T19:55:57.213Z,92063.09
2023-03-13T19:59:32.074Z,92063.75
2023-03-13T20:02:35.526Z,92057.94
2023-03-13T20:05:38.929Z,92054.00
2023-03-13T20:08:42.326Z,92059.69
2023-03-13T20:11:45.797Z,92054.53
2023-03-13T20:14:49.083Z,92060.81
2023-03-13T20:17:52.461Z,92060.00
2023-03-13T20:20:55.782Z,92060.66
2023-03-13T20:23:59.655Z,92055.53
2023-03-13T20:27:03.509Z,92059.34
2023-03-13T20:30:07.461Z,92063.16
2023-03-13T20:33:13.515Z,92059.34
2023-03-13T20:36:20.279Z,92065.06
2023-03-13T20:39:25.258Z,92069.66
2023-03-13T20:42:28.845Z,92072.69
2023-03-13T20:45:32.789Z,92071.25
2023-03-13T20:48:39.797Z,92072.81
2023-03-13T20:51:43.013Z,92070.31
2023-03-13T20:54:46.769Z,92069.75
2023-03-13T20:57:49.962Z,92076.00
2023-03-13T21:00:53.115Z,92076.50
2023-03-13T21:03:56.378Z,92071.34
2023-03-13T21:07:05.092Z,92077.03
2023-03-13T21:10:08.852Z,92080.06
2023-03-13T21:13:12.149Z,92079.94
2023-03-13T21:16:17.122Z,92072.28
2023-03-13T21:19:20.349Z,92085.06
2023-03-13T21:22:24.660Z,92087.00
2023-03-13T21:25:27.858Z,92083.72
2023-03-13T21:28:31.368Z,92090.75
2023-03-13T21:31:34.702Z,92086.28
2023-03-13T21:34:39.168Z,92081.16
2023-03-13T21:37:42.466Z,92086.22
2023-03-13T21:40:45.709Z,92078.47
2023-03-13T21:43:49.592Z,92089.38
2023-03-13T21:46:53.224Z,92099.16
2023-03-13T21:49:57.238Z,92100.28
2023-03-13T21:53:00.809Z,92105.72
2023-03-13T21:56:04.469Z,92114.09
2023-03-13T21:59:07.670Z,92108.59
2023-03-13T22:02:14.753Z,92103.53
2023-03-13T22:05:18.494Z,92093.09
2023-03-13T22:08:21.821Z,92107.88
2023-03-13T22:11:25.205Z,92105.69
2023-03-13T22:14:28.802Z,92106.94
2023-03-13T22:17:32.009Z,92111.91
2023-03-13T22:20:35.202Z,92118.28
2023-03-13T22:23:38.505Z,92121.13
2023-03-13T22:26:41.847Z,92120.06
2023-03-13T22:29:45.140Z,92115.84
2023-03-13T22:32:48.575Z,92118.41
2023-03-13T22:35:55.322Z,92119.53
2023-03-13T22:38:58.688Z,92118.72
2023-03-13T22:42:02.183Z,92119.25
2023-03-13T22:45:06.231Z,92128.38
2023-03-13T22:48:09.947Z,92125.31
2023-03-13T22:51:15.220Z,92124.50
2023-03-13T22:54:18.596Z,92126.41
2023-03-13T22:57:21.880Z,92127.78
2023-03-13T23:00:25.233Z,92135.19
2023-03-13T23:03:28.654Z,92134.44
2023-03-13T23:06:31.973Z,92135.91
2023-03-13T23:09:35.369Z,92147.97
2023-03-13T23:12:38.816Z,92144.59
2023-03-13T23:15:58.485Z,92146.53
2023-03-13T23:19:02.932Z,92142.28
2023-03-13T23:22:06.242Z,92146.50
2023-03-13T23:25:10.524Z,92152.53
2023-03-13T23:28:14.032Z,92149.63
2023-03-13T23:31:22.429Z,92144.13
2023-03-13T23:34:25.673Z,92152.28
2023-03-13T23:37:29.131Z,92158.34
2023-03-13T23:40:33.338Z,92155.94
2023-03-13T23:43:37.196Z,92163.88
2023-03-13T23:46:40.514Z,92158.63
2023-03-13T23:49:43.742Z,92156.44
2023-03-13T23:52:47.120Z,92170.56
2023-03-13T23:55:59.036Z,92166.09
2023-03-13T23:59:02.338Z,92183.97
